Lacey Spring, VA (22833)

11:33 PM EDT on March 23, 2017 (GMT -0400)
Lacey Heights Ave | | Change Station

Elev 1205 ft 38.53 °N, 78.75 °W | Updated 28 seconds ago

Clear
Clear
39.4 °F
Feels Like 39 °F
N
2.0
Wind Variable Wind from WSW

Today
High -- | Low -- °F
--% Chance of Precip.
Yesterday
High -- | Low -- °F
Precip. -- in
Pressure 30.46 in
Visibility 10.0 miles
Clouds Clear
Windchill 39 °F
Dew Point 19 °F
Humidity 45%
Rainfall 0.00 in
Snow Depth Not available.
7:13 AM 7:30 PM
Waning Crescent, 18% visible
METAR KLUA 240315Z AUTO 21006KT 10SM CLR 05/M06 A3046 RMK AO2
Pressure 30.46 in
Visibility 10.0 miles
Clouds Clear
Windchill 39 °F
Dew Point 19 °F
Humidity 45%
Rainfall 0.00 in
Snow Depth Not available.
7:13 AM 7:30 PM
Waning Crescent, 18% visible
METAR KLUA 240315Z AUTO 21006KT 10SM CLR 05/M06 A3046 RMK AO2

Get Severe Weather Alerts

Thanks for signing up!

Be on the lookout for a verification email in your inbox.

You'll start receiving the daily forecast at 8 AM.

×

10-Day Weather Forecast

Almanac

Astronomy

Mar. 23, 2017 Rise Set
Actual Time
Civil Twilight
Nautical Twilight
Astronomical Twilight
Moon
Length of Visible Light
Length of Day
Tomorrow will be .
, % of the Moon is Illuminated

Today's Extremes

State Highs State Lows

Community

WunderPhotos

Upload Photos

1,962,540 photos uploaded!

WunderBlog® & News

Nearby

Air Quality

  Air Quality AQ Index Pollutant
Not available.

Snow Depth

Station Depth Elevation

Earthquake Activity

City Distance Mag. Time & Date
Minimum magnitude displayed is 2.5.

Earthquake Activity

City Distance Mag. Time & Date
Minimum magnitude displayed is 2.5.

Coastal Water Temperatures

Place Temperature

Stations

Nearby Weather Stations

Station Location Temp. Windchill Dew Point Humidity Wind Precip. Elev Updated Type
                   

Watches & Warnings

There are currently no watches in effect.